Time;durP1;ratioP1;P1;durP2;ratioP2;P2;SDS_P1;SDS_P2;PMS_P1;PMS_P2;Temp;Humidity;BMP_temperature;BMP_pressure;BME280_temperature;BME280_humidity;BME280_pressure;Samples;Min_cycle;Max_cycle;Signal;HPM_P1;HPM_P2
2022/01/16 00:00:42;;;;;;;24.40;21.90;;;;;;;4.44;59.45;98703.69;8451774;27;20226;-68
2022/01/16 00:04:47;;;;;;;25.40;23.00;;;;;;;4.01;60.74;98729.63;8517043;27;20292;-67
2022/01/16 00:08:51;;;;;;;24.37;21.97;;;;;;;4.36;59.74;98677.22;8517116;27;20228;-67
2022/01/16 00:12:58;;;;;;;23.90;21.40;;;;;;;4.28;59.92;98661.91;8517193;27;20411;-67
2022/01/16 00:17:01;;;;;;;24.17;21.73;;;;;;;4.62;59.19;98671.91;8517282;27;20228;-67
2022/01/16 00:21:05;;;;;;;23.97;21.50;;;;;;;4.73;58.82;98682.06;8516905;27;20291;-67
2022/01/16 00:25:11;;;;;;;25.23;22.73;;;;;;;4.34;59.91;98674.72;8516280;27;20227;-67
2022/01/16 00:29:14;;;;;;;26.43;23.83;;;;;;;4.02;61.45;98672.38;8516717;27;20232;-68
2022/01/16 00:33:17;;;;;;;24.87;22.23;;;;;;;4.24;60.66;98632.03;8516540;27;20235;-67
2022/01/16 00:37:20;;;;;;;26.07;23.37;;;;;;;4.46;60.05;98617.31;8515999;27;20233;-67
2022/01/16 00:41:25;;;;;;;25.27;22.13;;;;;;;4.49;59.72;98605.31;8481285;27;20552;-66
2022/01/16 00:45:33;;;;;;;24.17;21.70;;;;;;;4.10;61.51;98620.19;8447796;28;20234;-67
2022/01/16 00:49:39;;;;;;;26.33;23.53;;;;;;;3.65;62.69;98613.66;8447414;28;20547;-67
2022/01/16 00:53:43;;;;;;;26.77;23.97;;;;;;;4.05;61.70;98624.47;8447871;28;20230;-68
2022/01/16 00:57:47;;;;;;;28.53;25.43;;;;;;;3.78;62.29;98625.53;8453709;28;20257;-68
2022/01/16 01:01:50;;;;;;;26.23;23.37;;;;;;;3.83;64.01;98638.34;8447988;28;20432;-68
2022/01/16 01:05:53;;;;;;;24.77;22.27;;;;;;;3.76;64.03;98613.59;8447536;28;20504;-68
2022/01/16 01:09:56;;;;;;;27.17;22.33;;;;;;;3.62;64.37;98631.63;8447573;28;20222;-67
2022/01/16 01:14:19;;;;;;;29.30;21.67;;;;;;;3.42;65.07;98654.78;8447621;28;20230;-67
2022/01/16 01:18:22;;;;;;;25.80;21.87;;;;;;;4.01;62.95;98651.00;8447749;28;20225;-67
2022/01/16 01:22:25;;;;;;;24.20;21.60;;;;;;;3.82;64.58;98647.72;8449630;28;20337;-67
2022/01/16 01:26:35;;;;;;;25.03;21.37;;;;;;;4.20;63.17;98604.72;8413657;28;20239;-67
2022/01/16 01:30:40;;;;;;;25.30;21.67;;;;;;;4.31;62.70;98554.19;8420909;28;20222;-67
2022/01/16 01:34:43;;;;;;;24.53;20.77;;;;;;;4.43;62.23;98559.19;8413798;28;20246;-67
2022/01/16 01:38:46;;;;;;;25.63;21.63;;;;;;;4.43;62.29;98550.66;8413575;28;20234;-68
2022/01/16 01:43:02;;;;;;;23.63;18.40;;;;;;;4.58;62.00;98591.53;8444474;28;20233;-68
2022/01/16 01:51:31;;;;;;;23.40;18.90;;;;;;;4.06;63.28;98618.50;8448821;28;20304;-68
2022/01/16 01:55:34;;;;;;;22.07;18.50;;;;;;;4.73;61.49;98623.91;8448017;28;20226;-68
2022/01/16 01:59:39;;;;;;;24.17;18.97;;;;;;;4.41;62.75;98625.03;8450574;28;20232;-69
2022/01/16 02:03:45;;;;;;;21.77;18.20;;;;;;;4.72;61.94;98621.34;8453268;28;20414;-68
2022/01/16 02:07:48;;;;;;;21.67;18.17;;;;;;;4.70;61.77;98622.22;8453201;28;20238;-68
2022/01/16 02:11:52;;;;;;;22.67;19.13;;;;;;;4.65;61.79;98635.97;8452735;28;20242;-68
2022/01/16 02:29:27;;;;;;;16.00;14.23;;;;;;;4.92;60.93;98650.22;8452162;28;20233;-68
2022/01/16 02:37:42;;;;;;;19.40;14.90;;;;;;;4.76;61.40;98629.00;8450981;28;20260;-68
2022/01/16 02:41:46;;;;;;;17.80;14.60;;;;;;;4.98;61.00;98619.34;8451809;28;20538;-68
2022/01/16 02:45:58;;;;;;;17.10;14.90;;;;;;;5.12;60.47;98621.72;8451903;28;20234;-68
2022/01/16 02:50:02;;;;;;;17.37;15.30;;;;;;;4.98;61.13;98627.03;8451742;28;20230;-68
2022/01/16 02:54:05;;;;;;;18.13;16.07;;;;;;;5.11;60.45;98622.63;8452008;28;20226;-68
2022/01/16 02:58:09;;;;;;;16.17;14.43;;;;;;;5.12;60.22;98616.59;8451672;28;20230;-69
2022/01/16 03:02:13;;;;;;;18.53;15.20;;;;;;;4.90;60.74;98606.59;8451377;28;20236;-69
2022/01/16 03:06:16;;;;;;;17.13;14.50;;;;;;;5.17;60.44;98604.56;8451087;28;20360;-68
2022/01/16 03:10:54;;;;;;;17.27;14.10;;;;;;;5.12;60.28;98593.50;8451397;28;20229;-68
2022/01/16 03:14:59;;;;;;;17.50;14.30;;;;;;;4.93;61.25;98589.44;8484467;28;20222;-68
2022/01/16 03:23:22;;;;;;;14.90;12.93;;;;;;;4.70;61.98;98586.28;8484977;28;20346;-68
2022/01/16 03:27:25;;;;;;;15.37;13.20;;;;;;;4.95;61.06;98577.44;8484616;28;20240;-68
2022/01/16 03:31:29;;;;;;;16.33;13.93;;;;;;;4.99;61.03;98579.97;8484389;28;20244;-68
2022/01/16 03:35:36;;;;;;;16.77;13.97;;;;;;;5.23;60.46;98565.13;8483536;28;20228;-68
2022/01/16 03:39:39;;;;;;;18.50;15.17;;;;;;;5.13;60.43;98559.25;8484288;28;20225;-68
2022/01/16 03:43:42;;;;;;;17.83;14.53;;;;;;;5.18;60.62;98561.75;8483871;28;20563;-68
2022/01/16 03:47:49;;;;;;;19.30;15.33;;;;;;;5.28;60.67;98560.78;8483189;28;20296;-68
2022/01/16 03:51:53;;;;;;;19.33;15.97;;;;;;;5.19;60.08;98556.59;8483468;28;20229;-68
2022/01/16 03:55:58;;;;;;;19.63;15.10;;;;;;;4.93;60.91;98548.38;8483570;28;20407;-68
2022/01/16 04:00:01;;;;;;;20.70;15.60;;;;;;;4.85;61.47;98545.91;8483091;28;20236;-68
2022/01/16 04:04:08;;;;;;;17.30;14.57;;;;;;;5.06;60.43;98544.78;8483003;28;20271;-68
2022/01/16 04:08:12;;;;;;;16.70;14.33;;;;;;;5.21;60.13;98541.19;8482830;28;20233;-68
2022/01/16 04:12:20;;;;;;;17.53;14.43;;;;;;;5.13;60.47;98548.16;8482951;28;20236;-68
2022/01/16 04:16:25;;;;;;;18.50;15.80;;;;;;;5.10;60.76;98536.19;8482633;28;20232;-68
2022/01/16 04:20:29;;;;;;;17.97;14.47;;;;;;;5.03;60.51;98548.25;8481936;28;20236;-68
2022/01/16 04:24:32;;;;;;;18.43;14.93;;;;;;;5.07;60.23;98541.38;8457034;28;20529;-69
2022/01/16 04:28:35;;;;;;;17.73;15.73;;;;;;;4.93;61.10;98544.13;8481769;28;20528;-68
2022/01/16 04:32:38;;;;;;;18.53;15.90;;;;;;;4.97;60.99;98545.78;8461249;28;20226;-68
2022/01/16 04:36:42;;;;;;;19.40;16.97;;;;;;;4.67;61.80;98545.25;8442947;28;20423;-68
2022/01/16 04:43:47;;;;;;;21.13;17.63;;;;;;;4.82;61.67;98544.25;8442816;28;20237;-68
2022/01/16 04:45:09;;;;;;;20.37;16.97;;;;;;;4.75;61.33;98547.75;8448693;28;20232;-68
2022/01/16 04:49:12;;;;;;;21.57;17.27;;;;;;;4.67;61.72;98555.53;8448438;28;20237;-68
2022/01/16 04:53:17;;;;;;;22.23;18.23;;;;;;;4.50;61.87;98565.97;8447955;28;20232;-68
2022/01/16 04:57:20;;;;;;;19.47;16.70;;;;;;;4.68;61.55;98566.63;8448504;28;20417;-68
2022/01/16 05:01:24;;;;;;;24.40;19.20;;;;;;;4.75;61.43;98552.03;8448152;28;20226;-68
2022/01/16 05:05:27;;;;;;;22.67;18.67;;;;;;;5.02;60.50;98561.94;8448247;28;20537;-69
2022/01/16 05:09:31;;;;;;;24.27;19.37;;;;;;;4.73;61.26;98564.88;8447571;28;20230;-69
2022/01/16 05:17:51;;;;;;;16.90;14.80;;;;;;;4.94;60.37;98571.47;8446663;28;20287;-68
2022/01/16 05:21:54;;;;;;;16.87;14.63;;;;;;;4.76;59.71;98571.69;8447218;28;20409;-68
2022/01/16 05:25:59;;;;;;;17.23;14.43;;;;;;;4.43;61.67;98582.28;8446915;28;20222;-68
2022/01/16 05:30:02;;;;;;;16.53;14.73;;;;;;;4.72;60.57;98572.59;8446565;28;20241;-68
2022/01/16 05:34:05;;;;;;;17.40;14.67;;;;;;;4.69;60.88;98565.78;8451743;28;20233;-68
2022/01/16 05:38:08;;;;;;;17.43;14.30;;;;;;;4.93;60.01;98553.53;8453952;28;20540;-68
2022/01/16 05:42:13;;;;;;;16.83;14.43;;;;;;;5.14;58.94;98548.13;8453684;28;20234;-68
2022/01/16 05:46:16;;;;;;;17.43;14.20;;;;;;;5.12;59.14;98559.28;8454062;28;20250;-68
2022/01/16 05:50:19;;;;;;;15.57;13.87;;;;;;;5.09;59.24;98562.75;8453791;28;20238;-68
2022/01/16 05:54:22;;;;;;;16.93;14.23;;;;;;;4.92;60.09;98557.81;8453487;28;20230;-68
2022/01/16 05:58:26;;;;;;;17.70;14.00;;;;;;;5.09;59.51;98555.88;8453513;28;20229;-68
2022/01/16 06:02:29;;;;;;;16.53;13.80;;;;;;;4.81;59.90;98551.94;8453376;28;20236;-68
2022/01/16 06:06:32;;;;;;;18.00;14.83;;;;;;;4.88;59.84;98561.28;8486594;28;20528;-68
2022/01/16 06:10:36;;;;;;;16.27;14.13;;;;;;;5.07;59.29;98557.63;8486520;28;20229;-69
2022/01/16 06:14:40;;;;;;;17.87;14.90;;;;;;;4.98;59.48;98569.72;8486678;28;20225;-69
2022/01/16 06:18:43;;;;;;;19.40;15.73;;;;;;;5.22;59.29;98559.13;8486781;28;20233;-68
2022/01/16 06:22:46;;;;;;;16.83;14.83;;;;;;;5.17;59.44;98545.50;8486732;28;20545;-69
2022/01/16 06:26:50;;;;;;;17.50;14.10;;;;;;;5.01;59.59;98554.28;8486117;28;20233;-68
2022/01/16 06:30:55;;;;;;;18.17;14.63;;;;;;;5.20;59.05;98555.75;8485883;28;20229;-68
2022/01/16 06:34:58;;;;;;;17.83;14.83;;;;;;;5.25;59.10;98550.53;8486536;28;20311;-68
2022/01/16 06:39:01;;;;;;;18.13;15.60;;;;;;;5.18;59.44;98551.47;8486219;28;20229;-68
2022/01/16 06:43:04;;;;;;;19.87;15.57;;;;;;;5.26;58.98;98549.69;8485384;28;20237;-68
2022/01/16 06:47:09;;;;;;;18.93;15.87;;;;;;;5.23;59.09;98547.16;8484943;28;20229;-68
2022/01/16 06:51:12;;;;;;;18.43;15.77;;;;;;;5.30;58.90;98553.91;8485598;28;20233;-68
2022/01/16 06:55:15;;;;;;;19.77;16.67;;;;;;;5.15;59.09;98570.34;8485339;28;20551;-68
2022/01/16 06:59:18;;;;;;;21.47;16.63;;;;;;;5.10;59.01;98592.66;8485273;28;20413;-69
2022/01/16 07:03:25;;;;;;;19.67;16.67;;;;;;;5.28;59.15;98591.59;8484935;28;20229;-68
2022/01/16 07:07:28;;;;;;;19.27;16.30;;;;;;;5.27;58.64;98597.59;8484852;28;20236;-68
2022/01/16 07:11:31;;;;;;;19.33;16.63;;;;;;;5.16;58.68;98609.72;8484299;28;20231;-69
2022/01/16 07:15:35;;;;;;;19.07;16.37;;;;;;;4.82;59.60;98610.97;8475320;28;20232;-68
2022/01/16 07:19:39;;;;;;;19.83;17.23;;;;;;;5.02;59.15;98628.69;8441370;28;20241;-69
2022/01/16 07:23:42;;;;;;;19.47;17.23;;;;;;;5.11;58.70;98626.91;8447097;28;20222;-68
2022/01/16 07:27:45;;;;;;;20.83;17.87;;;;;;;4.99;58.82;98630.44;8449851;28;20233;-68
2022/01/16 07:31:48;;;;;;;20.23;17.23;;;;;;;4.87;58.63;98618.59;8449285;28;20253;-68
2022/01/16 07:35:53;;;;;;;22.53;19.70;;;;;;;4.75;58.80;98629.84;8449502;28;20237;-68
2022/01/16 07:39:56;;;;;;;23.13;19.80;;;;;;;4.92;58.46;98634.81;8447230;28;20253;-68
2022/01/16 07:43:59;;;;;;;24.40;19.50;;;;;;;5.05;57.98;98635.53;8450145;28;20226;-68
2022/01/16 07:48:02;;;;;;;23.77;19.70;;;;;;;5.02;58.35;98623.56;8449765;28;20576;-68
2022/01/16 07:52:07;;;;;;;25.03;20.80;;;;;;;5.00;57.95;98643.28;8449544;28;20232;-69
2022/01/16 07:56:10;;;;;;;25.40;20.03;;;;;;;5.15;57.46;98639.69;8448470;28;20222;-68
2022/01/16 08:00:13;;;;;;;26.03;21.63;;;;;;;5.06;57.77;98634.66;8449457;28;20229;-68
2022/01/16 08:04:16;;;;;;;26.43;21.27;;;;;;;5.19;57.37;98646.47;8449310;28;20238;-68
2022/01/16 08:08:20;;;;;;;26.77;21.97;;;;;;;5.35;57.03;98648.84;8449144;28;20242;-68
2022/01/16 08:12:23;;;;;;;26.60;20.93;;;;;;;5.42;57.00;98645.34;8449765;28;20226;-68
2022/01/16 08:16:27;;;;;;;26.43;22.23;;;;;;;5.49;56.36;98632.41;8449068;28;20284;-68
2022/01/16 08:20:31;;;;;;;28.37;23.10;;;;;;;5.36;56.68;98637.72;8448251;28;20521;-68
2022/01/16 08:24:35;;;;;;;28.57;23.17;;;;;;;5.44;56.10;98643.59;8447047;28;20394;-69
2022/01/16 08:28:38;;;;;;;30.13;24.20;;;;;;;5.48;56.59;98640.13;8447262;28;20230;-69
2022/01/16 08:32:43;;;;;;;30.77;24.27;;;;;;;5.40;56.75;98632.53;8447229;28;20233;-68
2022/01/16 08:36:47;;;;;;;31.20;24.73;;;;;;;5.21;56.87;98633.63;8445784;28;20246;-68
2022/01/16 08:40:51;;;;;;;33.27;26.83;;;;;;;5.48;56.37;98638.44;8447356;28;20238;-69
2022/01/16 08:44:54;;;;;;;31.50;26.07;;;;;;;5.63;56.18;98644.22;8447481;28;20222;-68
2022/01/16 08:48:57;;;;;;;33.07;27.73;;;;;;;5.59;56.44;98647.69;8447021;28;20230;-69
2022/01/16 08:53:01;;;;;;;35.93;28.80;;;;;;;5.50;56.53;98643.53;8447220;28;20233;-68
2022/01/16 08:57:06;;;;;;;37.03;28.97;;;;;;;5.66;56.29;98644.19;8446856;28;20222;-68
2022/01/16 09:01:09;;;;;;;38.43;29.50;;;;;;;5.57;55.70;98650.28;8444600;28;20232;-69
2022/01/16 09:05:12;;;;;;;44.10;33.00;;;;;;;5.66;56.14;98637.31;8447243;28;20540;-68
2022/01/16 09:09:15;;;;;;;42.57;32.40;;;;;;;5.42;56.92;98650.50;8446981;28;20509;-68
2022/01/16 09:13:20;;;;;;;46.37;35.53;;;;;;;5.67;56.56;98651.00;8447771;28;20226;-68
2022/01/16 09:17:23;;;;;;;47.03;36.50;;;;;;;5.65;56.67;98652.75;8447779;28;20544;-68
2022/01/16 09:21:29;;;;;;;49.53;37.30;;;;;;;5.45;57.19;98653.03;8447783;28;20233;-68
2022/01/16 09:25:32;;;;;;;49.90;38.13;;;;;;;5.45;57.60;98658.16;8413203;28;20235;-68
2022/01/16 09:29:37;;;;;;;50.00;38.73;;;;;;;5.48;57.41;98660.69;8431903;28;20238;-69
2022/01/16 09:33:40;;;;;;;50.93;38.83;;;;;;;5.54;56.81;98662.31;8441065;28;20230;-68
2022/01/16 09:37:45;;;;;;;50.23;38.30;;;;;;;5.63;57.27;98664.78;8454086;28;20237;-68
2022/01/16 09:41:48;;;;;;;45.53;36.70;;;;;;;5.28;57.63;98676.34;8439398;28;20225;-69
2022/01/16 09:45:53;;;;;;;42.07;33.77;;;;;;;5.15;58.01;98685.06;8451630;28;20233;-68
2022/01/16 09:49:56;;;;;;;41.17;33.43;;;;;;;4.89;58.60;98679.34;8449437;28;20230;-68
2022/01/16 09:53:59;;;;;;;41.03;32.83;;;;;;;4.71;59.04;98687.22;8455503;28;20544;-68
2022/01/16 09:58:02;;;;;;;40.87;32.67;;;;;;;5.04;58.10;98691.13;8460236;28;20229;-68
2022/01/16 10:02:07;;;;;;;37.60;30.40;;;;;;;4.88;58.43;98699.88;8462510;28;20229;-68
2022/01/16 10:06:13;;;;;;;39.77;31.67;;;;;;;4.95;57.31;98688.69;8463036;28;20233;-69
2022/01/16 10:10:17;;;;;;;37.93;30.57;;;;;;;4.79;58.27;98682.84;8460839;28;20225;-67
2022/01/16 10:14:28;;;;;;;39.07;31.07;;;;;;;4.89;57.66;98668.19;8476188;28;20226;-68
2022/01/16 10:18:38;;;;;;;37.50;30.43;;;;;;;4.88;57.42;98663.94;8479286;28;20225;-70
2022/01/16 10:22:45;;;;;;;38.97;30.47;;;;;;;4.99;57.90;98664.69;8486291;28;20230;-69
2022/01/16 10:26:49;;;;;;;37.80;30.83;;;;;;;4.94;57.43;98661.31;8486257;28;20233;-68
2022/01/16 10:30:54;;;;;;;39.27;31.17;;;;;;;5.11;57.83;98666.28;8486221;28;20225;-68
2022/01/16 10:35:11;;;;;;;35.20;30.20;;;;;;;5.05;57.63;98676.59;8456936;28;20299;-68
2022/01/16 10:39:14;;;;;;;40.43;32.07;;;;;;;4.83;58.31;98674.25;8479548;28;20232;-68
2022/01/16 10:43:18;;;;;;;40.70;32.13;;;;;;;4.90;57.94;98673.31;8485986;28;20225;-68
2022/01/16 10:47:26;;;;;;;39.17;31.27;;;;;;;5.28;57.33;98690.03;8486103;28;20232;-68
2022/01/16 10:51:33;;;;;;;38.37;29.57;;;;;;;5.16;57.63;98692.75;8485812;28;20264;-68
2022/01/16 10:55:40;;;;;;;38.17;29.67;;;;;;;4.89;58.88;98696.44;8485296;28;20221;-69
2022/01/16 10:59:43;;;;;;;40.00;30.13;;;;;;;5.01;58.74;98698.91;8485453;28;20237;-68
2022/01/16 11:03:50;;;;;;;37.87;29.37;;;;;;;4.78;59.13;98698.25;8469975;28;20509;-68
2022/01/16 11:07:58;;;;;;;34.17;26.17;;;;;;;4.83;59.91;98697.34;8468073;28;20230;-68
2022/01/16 11:12:01;;;;;;;31.43;24.07;;;;;;;4.70;59.43;98706.03;8470247;28;20233;-68
2022/01/16 11:16:07;;;;;;;29.10;24.03;;;;;;;4.95;59.43;98708.34;8474350;28;20226;-68
2022/01/16 11:20:10;;;;;;;28.97;22.73;;;;;;;4.63;59.52;98705.25;8459398;28;20222;-68
2022/01/16 11:24:26;;;;;;;28.63;22.10;;;;;;;4.70;59.81;98709.47;8483513;28;20225;-68
2022/01/16 11:28:29;;;;;;;28.37;22.37;;;;;;;4.83;59.66;98707.59;8482764;28;20230;-68
2022/01/16 11:32:32;;;;;;;27.10;21.93;;;;;;;4.57;60.48;98712.13;8449211;28;20222;-68
2022/01/16 11:36:35;;;;;;;27.73;22.17;;;;;;;4.84;59.70;98722.16;8450223;28;20406;-69
2022/01/16 11:40:45;;;;;;;29.23;23.10;;;;;;;4.62;59.69;98729.19;8477085;28;20548;-68
2022/01/16 11:44:53;;;;;;;31.83;25.03;;;;;;;4.76;59.90;98734.22;8483720;28;20238;-68
2022/01/16 11:49:04;;;;;;;28.90;22.23;;;;;;;4.61;60.13;98747.19;8478024;28;20221;-68
2022/01/16 11:53:07;;;;;;;28.47;22.53;;;;;;;4.52;60.69;98749.81;8466498;28;20222;-68
2022/01/16 11:57:33;;;;;;;25.47;21.03;;;;;;;4.62;59.94;98744.56;8465641;28;20222;-67
2022/01/16 12:01:43;;;;;;;27.23;20.47;;;;;;;4.78;59.59;98752.13;8467037;28;20213;-69
2022/01/16 12:05:47;;;;;;;26.73;20.37;;;;;;;4.92;59.28;98754.59;8465837;28;20230;-68
2022/01/16 12:09:53;;;;;;;22.50;18.47;;;;;;;4.56;59.28;98751.47;8465010;28;20234;-68
2022/01/16 12:14:00;;;;;;;23.00;18.33;;;;;;;4.88;57.96;98741.78;8464902;28;20267;-68
2022/01/16 12:18:03;;;;;;;22.50;17.80;;;;;;;5.01;57.84;98742.53;8464722;28;20347;-69
2022/01/16 12:22:08;;;;;;;20.67;16.67;;;;;;;4.68;58.02;98734.28;8464687;28;20225;-68
2022/01/16 12:26:11;;;;;;;20.63;16.47;;;;;;;4.93;58.15;98731.50;8462900;28;20242;-69
2022/01/16 12:30:38;;;;;;;19.97;16.77;;;;;;;5.12;57.73;98744.97;8482451;28;20229;-68
2022/01/16 12:34:44;;;;;;;20.43;16.10;;;;;;;4.90;59.25;98742.63;8481802;28;20296;-68
2022/01/16 12:38:56;;;;;;;21.23;16.57;;;;;;;5.03;58.26;98739.97;8481755;28;20233;-68
2022/01/16 12:43:00;;;;;;;19.60;16.47;;;;;;;5.13;58.11;98740.72;8474140;28;20225;-68
2022/01/16 12:47:05;;;;;;;22.97;18.23;;;;;;;5.08;58.29;98730.47;8480785;28;20231;-68
2022/01/16 12:51:09;;;;;;;39.80;16.43;;;;;;;6.42;77.01;98733.97;8475306;28;20229;-75
2022/01/16 12:55:13;;;;;;;24.43;15.63;;;;;;;8.34;69.74;98730.31;8480790;28;20233;-76
2022/01/16 12:59:17;;;;;;;24.03;15.17;;;;;;;8.65;59.43;98716.69;8473155;28;20222;-77
2022/01/16 13:03:26;;;;;;;19.90;15.67;;;;;;;6.75;54.22;98724.84;8467538;28;20289;-69
2022/01/16 13:07:29;;;;;;;19.83;15.87;;;;;;;6.21;55.14;98723.13;8476319;28;20221;-69
2022/01/16 13:11:35;;;;;;;19.80;15.53;;;;;;;5.94;56.20;98736.34;8474121;28;20638;-68
2022/01/16 13:15:38;;;;;;;19.27;15.87;;;;;;;5.73;56.12;98729.75;8463160;28;20233;-69
2022/01/16 13:19:50;;;;;;;19.03;15.40;;;;;;;5.40;56.69;98732.69;8464732;28;20218;-68
2022/01/16 13:23:53;;;;;;;21.83;16.97;;;;;;;5.32;57.02;98742.22;8463973;28;20347;-68
2022/01/16 13:27:58;;;;;;;20.60;16.50;;;;;;;5.08;58.35;98744.19;8456220;28;20350;-69
2022/01/16 13:32:04;;;;;;;21.83;16.27;;;;;;;5.23;56.99;98744.88;8451452;28;20430;-69
2022/01/16 13:36:08;;;;;;;21.63;16.83;;;;;;;5.21;57.17;98737.19;8467149;28;20641;-68
2022/01/16 13:40:13;;;;;;;21.10;17.17;;;;;;;5.18;57.54;98744.94;8442358;28;20227;-68
2022/01/16 13:44:34;;;;;;;20.37;17.03;;;;;;;5.22;57.23;98751.75;8448148;28;20228;-68
2022/01/16 13:48:41;;;;;;;20.20;16.70;;;;;;;5.06;57.86;98740.78;8431596;28;20228;-69
2022/01/16 13:52:53;;;;;;;21.30;17.57;;;;;;;4.87;57.98;98746.94;8447677;28;20540;-68
2022/01/16 13:56:57;;;;;;;21.80;17.83;;;;;;;5.22;57.70;98762.00;8471723;28;20217;-68
2022/01/16 14:01:13;;;;;;;24.90;19.30;;;;;;;5.05;57.61;98757.03;8473832;28;20229;-68
2022/01/16 14:05:24;;;;;;;24.50;19.50;;;;;;;4.94;57.69;98765.72;8476479;28;20230;-68
2022/01/16 14:09:31;;;;;;;25.60;20.10;;;;;;;5.06;58.09;98770.72;8468912;28;20237;-68
2022/01/16 14:13:34;;;;;;;25.20;20.00;;;;;;;5.07;58.14;98780.13;8447980;28;20340;-68
2022/01/16 14:17:44;;;;;;;23.50;19.63;;;;;;;5.12;58.22;98773.22;8425746;28;20230;-68
2022/01/16 14:22:10;;;;;;;25.60;21.00;;;;;;;4.84;59.11;98781.19;8445513;28;20260;-69
2022/01/16 14:26:16;;;;;;;25.53;20.67;;;;;;;4.74;59.50;98810.38;8442940;28;20245;-68
2022/01/16 14:30:20;;;;;;;28.00;21.40;;;;;;;4.90;59.70;98804.22;8439098;28;20230;-68
2022/01/16 14:34:24;;;;;;;28.87;22.63;;;;;;;4.87;59.73;98811.09;8450338;28;20230;-68
2022/01/16 14:38:27;;;;;;;32.67;26.63;;;;;;;4.77;59.93;98812.88;8451067;28;20226;-68
2022/01/16 14:42:37;;;;;;;37.00;27.07;;;;;;;4.91;59.51;98820.47;8449688;28;20226;-68
2022/01/16 14:46:40;;;;;;;32.90;26.70;;;;;;;5.20;59.03;98821.97;8448726;28;20222;-68
2022/01/16 14:50:43;;;;;;;34.47;26.63;;;;;;;4.89;60.20;98829.91;8445970;28;20549;-69
2022/01/16 14:54:47;;;;;;;34.67;27.13;;;;;;;4.84;60.53;98823.97;8452371;28;20222;-68
2022/01/16 14:58:53;;;;;;;33.33;27.03;;;;;;;4.77;60.97;98820.59;8448885;28;20249;-70
2022/01/16 15:02:56;;;;;;;39.63;30.63;;;;;;;5.10;60.23;98828.88;8451056;28;20539;-68
2022/01/16 15:06:59;;;;;;;37.70;29.83;;;;;;;4.77;60.92;98818.03;8451009;28;20421;-68
2022/01/16 15:11:03;;;;;;;38.40;29.33;;;;;;;5.05;59.88;98828.94;8451163;28;20304;-68
2022/01/16 15:15:10;;;;;;;39.23;30.10;;;;;;;4.83;60.61;98832.53;8450796;28;20226;-69
2022/01/16 15:19:16;;;;;;;38.57;30.27;;;;;;;5.08;60.34;98831.47;8451144;28;20293;-68
2022/01/16 15:23:19;;;;;;;39.53;30.77;;;;;;;5.22;59.50;98838.22;8451195;28;20230;-68
2022/01/16 15:27:23;;;;;;;41.53;31.03;;;;;;;5.04;59.94;98852.03;8450356;28;20226;-68
2022/01/16 15:31:28;;;;;;;40.53;30.87;;;;;;;5.11;59.87;98861.41;8450448;28;20234;-68
2022/01/16 15:35:36;;;;;;;38.27;29.07;;;;;;;5.17;59.90;98873.34;8416279;28;20225;-69
2022/01/16 15:39:39;;;;;;;42.23;30.93;;;;;;;5.10;60.24;98872.53;8424024;28;20456;-68
2022/01/16 15:43:43;;;;;;;40.13;29.87;;;;;;;5.07;59.93;98881.13;8450284;28;20252;-68
2022/01/16 15:47:47;;;;;;;38.67;29.53;;;;;;;5.11;60.19;98884.50;8450099;28;20285;-68
2022/01/16 15:51:50;;;;;;;41.17;30.83;;;;;;;5.08;60.28;98887.09;8450133;28;20286;-68
2022/01/16 15:55:56;;;;;;;40.20;31.33;;;;;;;5.18;59.99;98882.72;8457534;28;20236;-68
2022/01/16 15:59:59;;;;;;;43.30;31.53;;;;;;;5.00;60.54;98883.75;8464367;28;20267;-68
2022/01/16 16:04:05;;;;;;;39.67;30.03;;;;;;;5.22;59.80;98895.56;8466507;28;20425;-68
2022/01/16 16:08:09;;;;;;;40.17;30.73;;;;;;;5.32;59.63;98908.34;8465318;28;20222;-68
2022/01/16 16:12:12;;;;;;;40.10;31.83;;;;;;;5.33;59.38;98921.16;8463128;28;20323;-68
2022/01/16 16:16:15;;;;;;;38.10;29.33;;;;;;;5.41;59.13;98928.81;8464083;28;20285;-68
2022/01/16 16:20:22;;;;;;;39.40;31.43;;;;;;;5.19;60.32;98933.25;8464611;28;20225;-68
2022/01/16 16:24:25;;;;;;;42.30;31.97;;;;;;;5.21;59.82;98932.38;8465327;28;20236;-67
2022/01/16 16:28:46;;;;;;;43.07;34.57;;;;;;;5.18;59.59;98939.22;8468073;28;20254;-68
2022/01/16 16:32:49;;;;;;;39.70;31.33;;;;;;;5.42;59.35;98935.63;8479351;28;20244;-68
2022/01/16 16:36:53;;;;;;;34.67;27.23;;;;;;;5.36;59.24;98941.66;8460377;28;20221;-68
2022/01/16 16:40:56;;;;;;;38.10;29.67;;;;;;;5.38;58.91;98939.94;8467191;28;20229;-68
2022/01/16 16:45:01;;;;;;;35.50;27.73;;;;;;;5.39;59.34;98933.13;8453734;28;20394;-69
2022/01/16 16:49:08;;;;;;;33.63;27.30;;;;;;;5.32;59.78;98940.00;8469556;28;20585;-68
2022/01/16 16:53:13;;;;;;;33.90;26.47;;;;;;;5.27;59.22;98944.31;8447679;28;20237;-68
2022/01/16 16:57:36;;;;;;;34.47;26.77;;;;;;;5.48;58.82;98943.28;8457660;28;20222;-68
2022/01/16 17:01:39;;;;;;;36.37;27.97;;;;;;;5.36;59.11;98941.66;8453352;28;20236;-68
2022/01/16 17:05:46;;;;;;;33.90;26.73;;;;;;;5.29;59.20;98951.16;8451645;28;20234;-69
2022/01/16 17:09:51;;;;;;;33.00;26.47;;;;;;;5.32;59.62;98946.84;8464474;28;20229;-68
2022/01/16 17:13:55;;;;;;;33.20;27.33;;;;;;;5.27;59.63;98952.00;8480911;28;20233;-68
2022/01/16 17:18:00;;;;;;;35.00;26.60;;;;;;;5.19;59.87;98962.34;8481308;28;20225;-68
2022/01/16 17:22:04;;;;;;;34.13;27.53;;;;;;;5.13;59.96;98964.13;8481890;28;20239;-67
2022/01/16 17:26:08;;;;;;;35.53;28.00;;;;;;;5.27;59.77;98967.41;8481375;28;20580;-68
2022/01/16 17:30:12;;;;;;;34.00;27.43;;;;;;;5.26;59.41;98965.72;8483425;28;20566;-68
2022/01/16 17:34:16;;;;;;;35.43;28.73;;;;;;;5.18;60.11;98968.34;8481259;28;20258;-68
2022/01/16 17:38:19;;;;;;;36.43;29.47;;;;;;;5.46;59.25;98963.00;8480711;28;20259;-68
2022/01/16 17:42:23;;;;;;;33.87;28.37;;;;;;;5.37;59.61;98968.19;8480565;28;20558;-68
2022/01/16 17:46:27;;;;;;;37.10;28.20;;;;;;;5.40;59.40;98973.34;8471509;28;20452;-68
2022/01/16 17:50:30;;;;;;;35.83;28.00;;;;;;;5.18;60.22;98968.34;8462533;28;20222;-68
2022/01/16 17:54:33;;;;;;;35.90;29.50;;;;;;;5.01;60.78;98978.72;8459837;28;20217;-68
2022/01/16 17:58:51;;;;;;;36.43;29.20;;;;;;;5.16;60.55;98967.50;8464411;28;20230;-67
2022/01/16 18:02:55;;;;;;;37.93;31.27;;;;;;;5.12;60.61;98970.94;8462449;28;20226;-69
2022/01/16 18:06:58;;;;;;;39.60;32.00;;;;;;;4.89;60.81;98971.94;8459745;28;20234;-68
2022/01/16 18:11:01;;;;;;;37.70;29.43;;;;;;;5.02;61.02;98974.44;8446011;28;20226;-68
2022/01/16 18:15:07;;;;;;;41.67;31.63;;;;;;;5.22;60.26;98989.75;8446084;28;20242;-68
2022/01/16 18:19:10;;;;;;;38.50;30.67;;;;;;;5.14;61.01;98994.03;8446465;28;20236;-67
2022/01/16 18:23:14;;;;;;;40.13;31.70;;;;;;;5.21;60.58;98981.16;8446489;28;20583;-67
2022/01/16 18:27:17;;;;;;;39.97;31.50;;;;;;;5.14;61.10;98991.47;8446173;28;20226;-68
2022/01/16 18:31:21;;;;;;;37.90;30.33;;;;;;;5.14;60.87;98991.47;8446089;28;20234;-68
2022/01/16 18:35:25;;;;;;;40.13;32.20;;;;;;;5.13;61.15;99005.19;8446228;28;20234;-68
2022/01/16 18:39:29;;;;;;;36.57;29.40;;;;;;;5.21;60.99;99014.53;8448415;28;20226;-68
2022/01/16 18:43:34;;;;;;;41.23;31.13;;;;;;;5.33;60.48;99012.75;8451679;28;20233;-68
2022/01/16 18:47:39;;;;;;;38.50;30.53;;;;;;;5.31;61.21;99022.19;8452028;28;20226;-68
2022/01/16 18:51:42;;;;;;;37.97;30.87;;;;;;;4.97;61.85;99018.13;8452250;28;20249;-68
2022/01/16 18:55:53;;;;;;;39.93;30.60;;;;;;;5.06;61.44;99024.91;8451282;28;20504;-68
2022/01/16 18:59:56;;;;;;;38.23;30.27;;;;;;;5.21;61.18;99018.84;8455860;28;20230;-68
2022/01/16 19:04:00;;;;;;;37.73;30.60;;;;;;;5.31;61.34;99015.34;8451272;28;20241;-68
2022/01/16 19:08:04;;;;;;;38.80;31.77;;;;;;;5.39;61.09;99018.72;8451276;28;20237;-68
2022/01/16 19:12:09;;;;;;;39.47;31.20;;;;;;;5.58;60.49;99016.88;8459906;28;20237;-68
2022/01/16 19:16:12;;;;;;;33.87;28.83;;;;;;;5.54;60.19;99019.47;8484723;28;20589;-68
2022/01/16 19:20:17;;;;;;;37.20;30.93;;;;;;;5.44;60.61;99016.97;8484262;28;20233;-68
2022/01/16 19:24:21;;;;;;;35.33;29.10;;;;;;;5.45;60.68;99020.41;8473036;28;20232;-68
2022/01/16 19:28:24;;;;;;;35.87;29.33;;;;;;;5.40;60.55;99014.44;8466627;28;20520;-68